Pagrindinis puslapis
METAR-TAF:

METAR-TAF

Oro uostai :

Fudžeira, Jungtiniai Arabų Emyratai

platuma: 25-06N, ilguma: 056-20E, Aukštis: 28 m

Dabartinis oras

Ataskaita buvo paskelbta 54 minutes, ne 22:00 UTC
Vėjas 4 kt iš Vakarų
Temperatūra 30°C
Drėgmė 38%
Slėgis 1008 hPa
Matomumas: 8000 m

METAR: OMFJ 012200Z 27004KT 8000 NSC 30/14 Q1007 A2976

Laikas: 02:54 (22:54 UTC)

Prognozė

Ataskaita buvo paskelbta 5 valandos ir 54 minutes, ne 17:00 UTC
Prognozė galioja nuo 01 metu 18 UTC su 02 metu 24 UTC
Vėjas 3 kt nuo kintamojo kryptimis
Matomumas: 8000 m
Tapsmas
nuo 01 metu 20 UTC su 01 metu 22 UTC
Vėjas 5 kt iš Vakarų/Šiaurės Vakarų
Tapsmas
nuo 02 metu 06 UTC su 02 metu 08 UTC
Vėjas 7 kt iš Rytų
Tikimybė 30%
nuo 02 metu 08 UTC su 02 metu 14 UTC
Mažai debesys ne aukštis 3500 ft, aukštai iškilę kamuoliniai debesys.
Tapsmas
nuo 02 metu 14 UTC su 02 metu 16 UTC
Vėjas 3 kt nuo kintamojo kryptimis

TAF: OMFJ 011700Z 0118/0224 VRB03KT 8000 NSC BECMG 0120/0122 29005KT BECMG 0206/0208 09007KT PROB30 0208/0214 FEW035TCU BECMG 0214/0216 VRB03KT

Orai ataskaitas ir orų prognozės (METAR, TAF).

turimą stotys yra geltonos ir raudonos taškus žemėlapyje.

Perkelti pele per norėdami pamatyti stoties vardą.

Tada spustelėkite, norėdami matyti oro stebėjimo ir prognozės.

Norėdami pakeisti žemėlapį: spustelėkite ant žalios mygtukų su juodo kryžiaus žemyn,; žalią mygtuką su brūkšneliu, jei norite nutolinti; arba žalių rodyklių gretimoms žemėlapius.


METAR-TAF: